Time;durP1;ratioP1;P1;durP2;ratioP2;P2;SDS_P1;SDS_P2;PMS_P1;PMS_P2;Temp;Humidity;BMP_temperature;BMP_pressure;BME280_temperature;BME280_humidity;BME280_pressure;Samples;Min_cycle;Max_cycle;Signal;HPM_P1;HPM_P2
2021/01/27 15:20:19;;;;;;;;;;;21.30;46.00;;;;;;5047653;27;20416;-76
2021/01/27 15:22:46;;;;;;;;;;;21.30;42.20;;;;;;5015434;28;19929;-73
2021/01/27 15:25:34;;;;;;;;;;;21.30;41.90;;;;;;5125204;27;19915;-75
2021/01/27 15:28:01;;;;;;;;;;;21.30;41.80;;;;;;5082141;28;19932;-75
2021/01/27 15:30:28;;;;;;;;;;;21.30;41.90;;;;;;5097472;28;19928;-74
2021/01/27 15:32:56;;;;;;;;;;;21.40;42.00;;;;;;5106295;28;19924;-79
2021/01/27 15:35:23;;;;;;;;;;;21.80;41.70;;;;;;5108609;28;20027;-74
2021/01/27 15:38:06;;;;;;;;;;;21.50;41.50;;;;;;5108732;28;19939;-77
2021/01/27 15:40:36;;;;;;;;;;;21.60;41.30;;;;;;5106032;28;19931;-74
2021/01/27 15:43:05;;;;;;;;;;;21.60;41.70;;;;;;5096300;28;20583;-72
2021/01/27 15:45:33;;;;;;;;;;;21.70;41.00;;;;;;5071101;27;145030;-72
2021/01/27 15:49:02;;;;;;;;;;;21.80;40.80;;;;;;4862079;27;19920;-72
2021/01/27 15:51:23;;;;;;;;;;;21.80;40.70;;;;;;4899830;28;19924;-74
2021/01/27 15:53:46;;;;;;;;;;;21.80;40.70;;;;;;4859503;27;19931;-75
2021/01/27 15:56:08;;;;;;;;;;;21.90;40.40;;;;;;4928368;28;19924;-76
2021/01/27 15:58:29;;;;;;;;;;;22.00;41.10;;;;;;4937382;28;19923;-70
2021/01/27 16:00:51;;;;;;;;;;;22.00;40.90;;;;;;4874955;27;19931;-79
2021/01/27 16:03:16;;;;;;;;;;;21.70;41.40;;;;;;4843678;28;19997;-74
2021/01/27 16:05:38;;;;;;;;;;;21.40;41.50;;;;;;4880980;27;19977;-75
2021/01/27 16:10:10;;;;;;;;;;;21.30;41.60;;;;;;4764449;27;20397;-74
2021/01/27 17:07:33;;;;;;;;;;;19.20;54.60;;;;;;328250;27;19942;-71
2021/01/27 17:07:44;;;;;;;;;;;19.80;51.30;;;;;;352086;28;1780;-71
2021/01/27 17:07:56;;;;;;;;;;;19.80;50.10;;;;;;350673;28;1768;-70
2021/01/27 17:08:10;;;;;;;;;;;19.80;49.30;;;;;;352071;28;1114;-71
2021/01/27 17:08:22;;;;;;;;;;;19.80;49.00;;;;;;349877;28;1754;-71
2021/01/27 17:08:34;;;;;;;;;;;19.80;48.40;;;;;;351126;28;1662;-70
2021/01/27 17:08:45;;;;;;;;;;;19.80;48.10;;;;;;351972;28;1800;-70
2021/01/27 17:08:56;;;;;;;;;;;19.70;47.90;;;;;;351265;28;1761;-70
2021/01/27 17:09:08;;;;;;;;;;;19.70;47.70;;;;;;350771;28;1115;-70
2021/01/27 17:09:20;;;;;;;;;;;19.70;47.60;;;;;;351392;28;1741;-71
2021/01/27 17:09:33;;;;;;;;;;;19.70;47.50;;;;;;350635;28;1690;-69
2021/01/27 17:09:44;;;;;;;;;;;19.70;47.50;;;;;;350581;28;1796;-69
2021/01/27 17:09:56;;;;;;;;;;;19.70;47.50;;;;;;351473;28;1646;-68
2021/01/27 17:10:12;;;;;;;;;;;19.70;47.30;;;;;;349368;28;2002;-68
2021/01/27 17:10:25;;;;;;;;;;;19.70;47.30;;;;;;351902;28;1861;-68
2021/01/27 17:10:37;;;;;;;;;;;19.70;47.10;;;;;;350848;28;1710;-68
2021/01/27 17:10:50;;;;;;;;;;;19.70;47.10;;;;;;350485;28;1109;-69
2021/01/27 17:11:02;;;;;;;;;;;19.70;47.20;;;;;;349620;28;1754;-67
2021/01/27 17:11:14;;;;;;;;;;;19.80;47.00;;;;;;349622;28;1731;-68
2021/01/27 17:11:26;;;;;;;;;;;19.70;47.00;;;;;;350520;28;1818;-68
2021/01/27 17:11:41;;;;;;;;;;;19.80;46.80;;;;;;349266;28;1754;-68
2021/01/27 17:11:58;;;;;;;;;;;19.80;46.70;;;;;;349545;28;1759;-69
2021/01/27 17:12:10;;;;;;;;;;;19.80;46.80;;;;;;350510;28;1102;-68
2021/01/27 17:12:22;;;;;;;;;;;20.90;47.40;;;;;;349899;28;2062;-68
2021/01/27 17:12:34;;;;;;;;;;;19.80;46.60;;;;;;350696;28;1809;-68
2021/01/27 17:12:46;;;;;;;;;;;19.80;46.50;;;;;;350410;28;1750;-67
2021/01/27 17:12:58;;;;;;;;;;;19.80;46.50;;;;;;349348;28;1766;-68
2021/01/27 17:13:10;;;;;;;;;;;19.80;46.50;;;;;;350367;28;2055;-68
2021/01/27 17:13:22;;;;;;;;;;;19.90;46.50;;;;;;349732;28;1855;-68
2021/01/27 17:13:33;;;;;;;;;;;19.80;46.60;;;;;;350720;28;2176;-68
2021/01/27 17:13:45;;;;;;;;;;;19.00;45.90;;;;;;350324;28;1838;-69
2021/01/27 17:13:56;;;;;;;;;;;19.90;46.30;;;;;;349729;28;1699;-68
2021/01/27 17:14:08;;;;;;;;;;;19.90;46.30;;;;;;349012;28;999;-70
2021/01/27 17:14:20;;;;;;;;;;;19.90;46.20;;;;;;347568;28;1733;-69
2021/01/27 17:14:32;;;;;;;;;;;19.80;46.10;;;;;;347784;28;1856;-69
2021/01/27 17:14:43;;;;;;;;;;;19.90;46.10;;;;;;349865;28;1818;-69
2021/01/27 17:14:55;;;;;;;;;;;19.50;45.70;;;;;;350213;28;3313;-71
2021/01/27 17:15:07;;;;;;;;;;;21.20;46.60;;;;;;349512;28;1786;-69
2021/01/27 17:15:22;;;;;;;;;;;19.90;45.80;;;;;;346273;28;1725;-72
2021/01/27 17:15:34;;;;;;;;;;;19.90;45.80;;;;;;346588;28;1764;-69
2021/01/27 17:15:46;;;;;;;;;;;20.00;46.00;;;;;;335296;28;11418;-69
2021/01/27 17:15:58;;;;;;;;;;;18.90;45.60;;;;;;346377;28;8688;-68
2021/01/27 17:16:10;;;;;;;;;;;20.00;46.10;;;;;;346191;28;5431;-68
2021/01/27 17:16:22;;;;;;;;;;;20.00;46.20;;;;;;345855;28;5749;-68
2021/01/27 17:16:50;;;;;;;;;;;20.00;45.90;;;;;;332583;28;6256;-67
2021/01/27 17:17:05;;;;;;;;;;;20.00;45.90;;;;;;345389;28;5507;-67
2021/01/27 17:17:17;;;;;;;;;;;20.10;45.50;;;;;;345150;28;10270;-67
2021/01/27 17:17:29;;;;;;;;;;;20.10;45.60;;;;;;349551;28;5347;-67
2021/01/27 17:17:41;;;;;;;;;;;20.10;45.60;;;;;;337545;28;5742;-67
2021/01/27 17:17:53;;;;;;;;;;;20.10;45.40;;;;;;347122;28;5713;-66
2021/01/27 17:18:14;;;;;;;;;;;20.10;45.50;;;;;;335104;28;5650;-66
2021/01/27 17:18:26;;;;;;;;;;;20.10;45.50;;;;;;322583;28;5636;-77
2021/01/27 17:18:40;;;;;;;;;;;20.10;50.30;;;;;;344975;28;5680;-72
2021/01/27 17:18:51;;;;;;;;;;;20.20;49.60;;;;;;345662;28;6025;-70
2021/01/27 17:19:22;;;;;;;;;;;20.30;47.40;;;;;;324518;28;6201;-75
2021/01/27 17:19:33;;;;;;;;;;;20.40;46.80;;;;;;330691;28;5555;-70
2021/01/27 17:19:45;;;;;;;;;;;20.40;48.30;;;;;;332943;28;5486;-71
2021/01/27 17:20:00;;;;;;;;;;;20.50;48.50;;;;;;343451;28;5895;-74
2021/01/27 17:20:11;;;;;;;;;;;20.60;46.80;;;;;;344518;28;5743;-66
2021/01/27 17:20:23;;;;;;;;;;;20.60;45.80;;;;;;344537;28;6051;-69
2021/01/27 17:20:36;;;;;;;;;;;20.60;45.50;;;;;;346101;28;5914;-66
2021/01/27 17:20:50;;;;;;;;;;;20.60;45.20;;;;;;344797;28;11025;-76
2021/01/27 17:21:01;;;;;;;;;;;20.60;45.10;;;;;;349428;28;1633;-67
2021/01/27 17:21:13;;;;;;;;;;;20.60;45.00;;;;;;350393;28;1794;-70
2021/01/27 17:21:24;;;;;;;;;;;20.60;44.80;;;;;;349076;28;1735;-72
2021/01/27 17:21:35;;;;;;;;;;;20.60;44.80;;;;;;349700;28;1731;-72
2021/01/27 17:21:48;;;;;;;;;;;20.60;45.30;;;;;;350609;28;1137;-73
2021/01/27 17:21:59;;;;;;;;;;;20.70;46.70;;;;;;351449;28;1738;-73
2021/01/27 17:22:11;;;;;;;;;;;20.70;48.60;;;;;;352172;28;1134;-74
2021/01/27 17:22:23;;;;;;;;;;;20.80;46.90;;;;;;351145;28;1789;-72
2021/01/27 17:22:45;;;;;;;;;;;20.90;45.20;;;;;;339130;27;19968;-72
2021/01/27 17:22:57;;;;;;;;;;;21.00;45.80;;;;;;326817;28;11470;-66
2021/01/27 17:23:08;;;;;;;;;;;21.00;45.30;;;;;;350396;28;6331;-67
2021/01/27 17:23:21;;;;;;;;;;;21.00;44.90;;;;;;351236;28;1743;-70
2021/01/27 17:23:33;;;;;;;;;;;21.00;44.70;;;;;;352243;28;1777;-73
2021/01/27 17:27:05;;;;;;;16.15;5.65;;;22.00;43.60;;;;;;354187;27;20642;-64
2021/01/27 17:27:17;;;;;;;17.80;6.45;;;21.90;43.20;;;;;;354459;27;2083;-66
2021/01/27 17:27:28;;;;;;;16.27;6.82;;;21.90;42.80;;;;;;353579;27;1183;-74
2021/01/27 17:27:41;;;;;;;16.35;7.07;;;21.80;42.70;;;;;;354411;27;1769;-69
2021/01/27 17:28:12;;;;;;;15.63;7.43;;;21.80;42.90;;;;;;351983;27;33406;-65
2021/01/27 17:28:23;;;;;;;15.63;7.57;;;21.70;43.20;;;;;;354588;27;1760;-66
2021/01/27 17:28:35;;;;;;;16.88;7.30;;;21.60;43.10;;;;;;354646;27;1898;-68
2021/01/27 17:28:46;;;;;;;15.95;6.65;;;21.50;43.00;;;;;;352535;27;10479;-64
2021/01/27 17:28:57;;;;;;;16.85;6.15;;;21.50;43.10;;;;;;352994;28;1740;-66
2021/01/27 17:29:09;;;;;;;17.63;6.47;;;21.50;44.10;;;;;;353220;28;1142;-68
2021/01/27 17:29:21;;;;;;;22.45;7.30;;;21.40;44.10;;;;;;353122;28;1725;-65
2021/01/27 17:29:33;;;;;;;22.27;7.38;;;21.40;44.00;;;;;;353313;28;1793;-67
2021/01/27 17:29:44;;;;;;;20.25;6.85;;;21.40;43.60;;;;;;353169;28;1753;-72
2021/01/27 17:29:56;;;;;;;18.55;6.72;;;21.40;44.50;;;;;;353360;28;1816;-67
2021/01/27 17:30:08;;;;;;;27.65;7.00;;;21.30;44.80;;;;;;353243;28;1037;-70
2021/01/27 17:30:39;;;;;;;23.55;6.70;;;21.30;44.20;;;;;;350047;28;69316;-69
2021/01/27 17:30:50;;;;;;;20.48;6.38;;;21.30;45.30;;;;;;353327;28;1131;-69
2021/01/27 17:31:02;;;;;;;13.75;6.38;;;21.30;44.90;;;;;;352377;28;1805;-72
2021/01/27 17:31:14;;;;;;;15.70;6.50;;;21.30;44.00;;;;;;353186;28;1812;-69
2021/01/27 17:31:26;;;;;;;18.75;6.32;;;21.20;43.80;;;;;;353114;28;1748;-68
2021/01/27 17:31:38;;;;;;;19.88;6.25;;;21.20;43.60;;;;;;353108;28;1769;-67
2021/01/27 17:31:50;;;;;;;16.08;6.28;;;21.20;44.00;;;;;;353294;28;1126;-68
2021/01/27 17:32:02;;;;;;;14.02;6.22;;;21.20;44.20;;;;;;352947;28;1939;-72
2021/01/27 17:32:14;;;;;;;11.98;5.88;;;21.20;44.80;;;;;;353212;28;1769;-74
2021/01/27 17:32:26;;;;;;;12.63;6.10;;;21.20;45.70;;;;;;352949;28;1996;-74
2021/01/27 17:32:38;;;;;;;11.45;6.28;;;21.20;44.30;;;;;;353076;28;1824;-67
2021/01/27 17:32:50;;;;;;;13.55;6.28;;;21.20;43.90;;;;;;353316;28;1061;-71
2021/01/27 17:33:02;;;;;;;15.18;6.13;;;21.20;43.70;;;;;;352832;28;1792;-68
2021/01/27 17:33:14;;;;;;;13.65;6.18;;;21.20;43.60;;;;;;353106;28;1785;-67
2021/01/27 17:33:25;;;;;;;12.25;5.78;;;21.20;43.60;;;;;;353116;28;1765;-74
2021/01/27 17:33:37;;;;;;;12.80;5.68;;;21.10;43.70;;;;;;353172;28;1816;-68
2021/01/27 17:33:48;;;;;;;11.98;5.85;;;21.10;43.50;;;;;;351877;28;1181;-68
2021/01/27 17:34:01;;;;;;;11.98;6.38;;;21.10;43.50;;;;;;352656;28;1840;-69
2021/01/27 17:34:13;;;;;;;10.85;6.32;;;21.10;43.50;;;;;;353171;28;1805;-66
2021/01/27 17:34:24;;;;;;;11.93;6.30;;;21.10;43.50;;;;;;353145;28;1740;-70
2021/01/27 17:34:38;;;;;;;11.57;6.20;;;21.10;43.60;;;;;;353253;28;1867;-67
2021/01/27 17:34:50;;;;;;;13.52;6.22;;;21.10;43.90;;;;;;352340;28;25647;-67
2021/01/27 17:35:03;;;;;;;21.33;6.88;;;21.00;44.00;;;;;;352988;28;1733;-71
2021/01/27 17:35:15;;;;;;;22.13;7.20;;;21.00;44.40;;;;;;352281;28;24229;-75
2021/01/27 17:35:28;;;;;;;21.20;7.10;;;21.20;53.40;;;;;;353191;28;1725;-73
2021/01/27 17:35:39;;;;;;;17.08;5.28;;;21.30;53.20;;;;;;353024;28;1891;-71
2021/01/27 17:35:51;;;;;;;50.97;6.82;;;21.50;54.50;;;;;;353367;28;1279;-71
2021/01/27 17:36:02;;;;;;;48.05;6.45;;;21.00;50.50;;;;;;352602;28;1742;-68
2021/01/27 17:36:29;;;;;;;11.52;3.53;;;21.80;47.90;;;;;;335699;28;88708;-72
2021/01/27 17:36:41;;;;;;;6.80;3.33;;;21.80;43.20;;;;;;340343;28;178087;-72
